Thornton, United Kingdom
Current Conditions -  °F | °C
As of 3:20 AM on Saturday 22 Nov 2014 (Local Time) from EGPH Reporting Station
Broken Clouds Broken Clouds  
Wind Chill:   Ceiling: 3200
Heat Index:   Visibility: 6mi
Dew Point:   Wind: 7mph
Humidity: 93%   Direction: 80°E
Pressure: 29.71"   Gusts: NA
Location:  56.17°N, 3.15°W
Report Text: EGPH 220320Z 08006KT 9999 SCT017 BKN032 08/07 Q1006
Loading
Personal Weather Stations






























Interactive Weather Map New forecast layout! Learn more

10-Day Weather Forecast

Advertisements
Track Severe Weather on mobile